createdAt,value
2023-05-11T00:02:00.723Z,34.37
2023-05-11T00:07:02.993Z,34.21
2023-05-11T00:12:05.877Z,34.83
2023-05-11T00:17:07.959Z,34.91
2023-05-11T00:22:10.256Z,35.05
2023-05-11T00:27:12.429Z,35.55
2023-05-11T00:32:14.614Z,35.62
2023-05-11T00:37:17.031Z,35.82
2023-05-11T00:42:19.284Z,36.06
2023-05-11T00:47:21.473Z,36.20
2023-05-11T00:52:24.474Z,36.28
2023-05-11T00:57:27.075Z,36.44
2023-05-11T01:02:30.639Z,36.59
2023-05-11T01:08:01.549Z,36.87
2023-05-11T01:13:51.357Z,37.18
2023-05-11T01:18:59.534Z,37.27
2023-05-11T01:24:26.746Z,37.76
2023-05-11T01:29:50.432Z,37.68
2023-05-11T01:35:01.321Z,37.69
2023-05-11T01:40:10.371Z,37.98
2023-05-11T01:45:15.315Z,37.86
2023-05-11T01:50:19.361Z,38.18
2023-05-11T01:55:23.265Z,38.41
2023-05-11T02:00:25.768Z,38.60
2023-05-11T02:05:30.030Z,38.30
2023-05-11T02:10:32.886Z,38.54
2023-05-11T02:15:39.943Z,38.71
2023-05-11T02:20:44.122Z,38.95
2023-05-11T02:25:46.713Z,39.10
2023-05-11T02:30:53.934Z,39.12
2023-05-11T02:35:57.799Z,39.21
2023-05-11T02:41:07.251Z,39.24
2023-05-11T02:46:16.179Z,39.46
2023-05-11T02:51:24.259Z,39.22
2023-05-11T02:56:26.850Z,39.54
2023-05-11T03:01:30.629Z,39.47
2023-05-11T03:06:33.674Z,39.67
2023-05-11T03:11:37.090Z,39.74
2023-05-11T03:16:40.156Z,40.33
2023-05-11T03:21:42.900Z,40.18
2023-05-11T03:26:46.204Z,40.03
2023-05-11T03:31:51.088Z,40.13
2023-05-11T03:36:54.672Z,40.26
2023-05-11T03:41:58.597Z,40.15
2023-05-11T03:47:03.446Z,40.28
2023-05-11T03:52:07.073Z,40.21
2023-05-11T03:57:10.574Z,40.54
2023-05-11T04:02:12.897Z,40.25
2023-05-11T04:07:14.941Z,40.38
2023-05-11T04:12:18.763Z,40.06
2023-05-11T04:17:20.791Z,40.09
2023-05-11T04:22:22.926Z,40.34
2023-05-11T04:27:25.332Z,40.32
2023-05-11T04:32:28.779Z,40.32
2023-05-11T04:37:31.333Z,40.58
2023-05-11T04:42:33.355Z,40.40
2023-05-11T04:47:35.505Z,40.40
2023-05-11T04:52:37.673Z,40.38
2023-05-11T04:57:39.757Z,40.34
2023-05-11T05:02:41.876Z,40.57
2023-05-11T05:07:44.330Z,40.32
2023-05-11T05:12:47.253Z,40.57
2023-05-11T05:17:49.454Z,40.48
2023-05-11T05:22:51.707Z,40.42
2023-05-11T05:27:53.742Z,40.32
2023-05-11T05:32:56.065Z,40.22
2023-05-11T05:37:58.258Z,40.09
2023-05-11T05:43:00.962Z,40.01
2023-05-11T05:48:05.653Z,40.21
2023-05-11T05:53:07.989Z,40.19
2023-05-11T05:58:10.172Z,39.71
2023-05-11T06:03:12.468Z,39.58
2023-05-11T06:08:14.744Z,39.58
2023-05-11T06:13:16.942Z,39.21
2023-05-11T06:18:19.378Z,38.90
2023-05-11T06:23:21.704Z,38.85
2023-05-11T06:28:24.191Z,38.57
2023-05-11T06:33:26.493Z,38.33
2023-05-11T06:38:28.868Z,38.02
2023-05-11T06:43:31.160Z,37.70
2023-05-11T06:48:33.341Z,37.39
2023-05-11T06:53:35.527Z,36.88
2023-05-11T06:58:37.711Z,36.66
2023-05-11T07:03:39.993Z,36.35
2023-05-11T07:08:42.080Z,35.83
2023-05-11T07:13:44.985Z,35.69
2023-05-11T07:18:47.238Z,35.56
2023-05-11T07:23:49.564Z,35.44
2023-05-11T07:28:51.842Z,34.93
2023-05-11T07:33:54.023Z,34.49
2023-05-11T07:38:57.434Z,34.24
2023-05-11T07:44:03.817Z,33.75
2023-05-11T07:49:15.842Z,33.07
2023-05-11T07:54:22.929Z,32.64
2023-05-11T07:59:25.322Z,32.22
2023-05-11T08:04:27.947Z,32.37
2023-05-11T08:09:30.304Z,31.95
2023-05-11T08:14:32.793Z,31.69
2023-05-11T08:19:34.981Z,31.48
2023-05-11T08:24:37.269Z,31.38
2023-05-11T08:29:39.349Z,31.08
2023-05-11T08:34:41.515Z,30.72
2023-05-11T08:39:47.720Z,30.40
2023-05-11T08:44:51.843Z,30.51
2023-05-11T08:49:54.126Z,30.34
2023-05-11T08:54:56.317Z,30.28
2023-05-11T09:00:01.593Z,30.14
2023-05-11T09:05:04.370Z,29.97
2023-05-11T09:10:07.963Z,29.93
2023-05-11T09:15:10.886Z,29.53
2023-05-11T09:20:12.966Z,29.43
2023-05-11T09:25:18.882Z,29.38
2023-05-11T09:30:23.721Z,29.41
2023-05-11T09:35:33.017Z,29.00
2023-05-11T09:40:43.164Z,28.46
2023-05-11T09:45:50.312Z,28.42
2023-05-11T09:50:59.561Z,28.52
2023-05-11T09:56:01.654Z,28.09
2023-05-11T10:01:03.748Z,27.84
2023-05-11T10:06:06.424Z,27.59
2023-05-11T10:11:08.911Z,27.56
2023-05-11T10:16:15.038Z,27.15
2023-05-11T10:21:17.897Z,27.06
2023-05-11T10:26:20.488Z,26.89
2023-05-11T10:31:24.294Z,26.97
2023-05-11T10:36:27.822Z,26.85
2023-05-11T10:42:01.098Z,26.52
2023-05-11T10:47:05.980Z,26.61
2023-05-11T10:52:17.992Z,26.46
2023-05-11T10:57:22.941Z,26.46
2023-05-11T11:02:31.216Z,26.09
2023-05-11T11:07:58.298Z,25.79
2023-05-11T11:13:11.479Z,26.00
2023-05-11T11:18:27.342Z,25.84
2023-05-11T11:23:49.852Z,25.75
2023-05-11T11:29:00.239Z,25.79
2023-05-11T11:34:27.405Z,25.58
2023-05-11T11:39:46.171Z,25.43
2023-05-11T11:44:48.354Z,25.31
2023-05-11T11:49:53.017Z,25.46
2023-05-11T11:54:56.711Z,25.34
2023-05-11T12:00:06.749Z,25.20
2023-05-11T12:05:13.583Z,25.09
2023-05-11T12:10:18.296Z,24.97
2023-05-11T12:15:33.606Z,24.99
2023-05-11T12:20:35.796Z,24.68
2023-05-11T12:25:37.874Z,24.74
2023-05-11T12:30:40.057Z,24.67
2023-05-11T12:35:43.677Z,24.57
2023-05-11T12:40:50.490Z,24.19
2023-05-11T12:45:52.815Z,23.97
2023-05-11T12:50:54.945Z,24.25
2023-05-11T12:56:00.504Z,24.22
2023-05-11T13:01:02.805Z,24.17
2023-05-11T13:06:08.557Z,23.95
2023-05-11T13:11:28.141Z,23.67
2023-05-11T13:16:34.170Z,23.69
2023-05-11T13:21:36.314Z,23.42
2023-05-11T13:26:38.403Z,23.67
2023-05-11T13:31:51.926Z,23.56
2023-05-11T13:36:54.225Z,23.62
2023-05-11T13:41:56.407Z,23.55
2023-05-11T13:47:01.457Z,23.23
2023-05-11T13:52:04.508Z,22.75
2023-05-11T13:57:07.071Z,21.55
2023-05-11T14:02:09.690Z,20.52
2023-05-11T14:07:12.149Z,19.83
2023-05-11T14:12:14.642Z,18.31
2023-05-11T14:17:25.964Z,16.79
2023-05-11T14:22:29.059Z,15.56
2023-05-11T14:27:31.135Z,13.75
2023-05-11T14:32:33.340Z,12.94
2023-05-11T14:37:38.371Z,11.99
2023-05-11T14:42:40.453Z,10.19
2023-05-11T14:47:43.269Z,8.91
2023-05-11T14:52:46.347Z,8.60
2023-05-11T14:57:48.548Z,8.43
2023-05-11T15:02:51.560Z,7.39
2023-05-11T15:07:53.822Z,6.76
2023-05-11T15:12:56.111Z,6.07
2023-05-11T15:17:58.237Z,5.65
2023-05-11T15:23:00.485Z,5.31
2023-05-11T15:28:03.492Z,5.08
2023-05-11T15:33:05.667Z,5.38
2023-05-11T15:38:07.881Z,4.84
2023-05-11T15:43:10.140Z,4.77
2023-05-11T15:48:12.320Z,4.84
2023-05-11T15:53:14.711Z,4.69
2023-05-11T15:58:17.918Z,4.81
2023-05-11T16:03:20.639Z,4.69
2023-05-11T16:08:22.913Z,4.58
2023-05-11T16:13:24.973Z,4.62
2023-05-11T16:18:29.181Z,4.62
2023-05-11T16:23:31.596Z,5.03
2023-05-11T16:28:33.779Z,4.82
2023-05-11T16:33:37.349Z,4.86
2023-05-11T16:38:39.397Z,5.05
2023-05-11T16:43:42.488Z,5.09
2023-05-11T16:48:44.988Z,5.34
2023-05-11T16:53:47.476Z,5.28
2023-05-11T16:58:49.654Z,5.61
2023-05-11T17:03:51.901Z,5.64
2023-05-11T17:08:54.665Z,5.88
2023-05-11T17:13:56.833Z,6.05
2023-05-11T17:18:59.243Z,6.24
2023-05-11T17:24:01.605Z,6.44
2023-05-11T17:29:03.793Z,6.49
2023-05-11T17:34:08.013Z,6.78
2023-05-11T17:39:11.456Z,7.21
2023-05-11T17:44:13.618Z,7.46
2023-05-11T17:49:15.803Z,7.89
2023-05-11T17:54:17.990Z,8.31
2023-05-11T17:59:21.099Z,8.85
2023-05-11T18:04:23.207Z,9.38
2023-05-11T18:09:25.289Z,10.16
2023-05-11T18:14:27.450Z,10.64
2023-05-11T18:19:30.117Z,11.31
2023-05-11T18:24:32.220Z,11.98
2023-05-11T18:29:34.305Z,12.66
2023-05-11T18:34:40.687Z,13.41
2023-05-11T18:39:42.691Z,14.11
2023-05-11T18:44:44.644Z,14.71
2023-05-11T18:49:48.443Z,15.20
2023-05-11T18:54:51.376Z,15.75
2023-05-11T18:59:53.962Z,16.31
2023-05-11T19:04:56.657Z,16.82
2023-05-11T19:09:58.953Z,17.43
2023-05-11T19:15:01.033Z,17.93
2023-05-11T19:20:03.513Z,18.75
2023-05-11T19:25:06.927Z,19.30
2023-05-11T19:30:09.949Z,19.66
2023-05-11T19:35:13.553Z,20.23
2023-05-11T19:45:21.407Z,20.52
2023-05-11T19:50:24.634Z,20.85
2023-05-11T19:55:27.206Z,21.29
2023-05-11T20:00:29.708Z,22.09
2023-05-11T20:05:31.976Z,22.22
2023-05-11T20:10:35.083Z,22.49
2023-05-11T20:15:37.577Z,22.63
2023-05-11T20:20:39.586Z,23.12
2023-05-11T20:25:43.729Z,23.62
2023-05-11T20:30:45.664Z,23.55
2023-05-11T20:35:47.950Z,23.84
2023-05-11T20:40:50.034Z,23.92
2023-05-11T20:45:52.369Z,24.36
2023-05-11T20:50:55.179Z,24.57
2023-05-11T20:55:57.404Z,24.98
2023-05-11T21:00:59.561Z,25.20
2023-05-11T21:06:01.813Z,25.56
2023-05-11T21:11:04.328Z,25.83
2023-05-11T21:16:07.753Z,25.91
2023-05-11T21:21:09.863Z,26.19
2023-05-11T21:26:11.946Z,26.74
2023-05-11T21:31:14.150Z,26.93
2023-05-11T21:36:16.215Z,27.53
2023-05-11T21:41:18.191Z,27.45
2023-05-11T21:46:20.541Z,27.43
2023-05-11T21:51:22.657Z,28.03
2023-05-11T21:56:25.076Z,28.19
2023-05-11T22:01:27.075Z,27.93
2023-05-11T22:06:29.316Z,28.80
2023-05-11T22:11:33.041Z,28.56
2023-05-11T22:16:35.138Z,28.96
2023-05-11T22:21:37.202Z,29.01
2023-05-11T22:26:39.697Z,29.23
2023-05-11T22:31:43.990Z,29.81
2023-05-11T22:36:47.744Z,29.96
2023-05-11T22:41:49.832Z,30.07
2023-05-11T22:46:52.322Z,30.65
2023-05-11T22:51:58.186Z,30.61
2023-05-11T22:57:01.295Z,31.14
2023-05-11T23:02:04.135Z,31.86
2023-05-11T23:07:07.408Z,32.09
2023-05-11T23:12:09.600Z,32.26
2023-05-11T23:17:12.221Z,32.52
2023-05-11T23:22:14.780Z,32.96
2023-05-11T23:27:16.964Z,33.32
2023-05-11T23:32:19.248Z,33.73
2023-05-11T23:37:21.946Z,33.97
2023-05-11T23:42:24.029Z,33.95
2023-05-11T23:47:26.590Z,34.05
2023-05-11T23:52:29.419Z,34.54
2023-05-11T23:57:32.034Z,34.62
